createdAt,value
2018-10-01T00:34:48.039Z,22.73
2018-10-01T00:37:26.177Z,22.77
2018-10-01T00:39:57.326Z,23.55
2018-10-01T00:42:28.306Z,24.23
2018-10-01T00:45:01.854Z,23.40
2018-10-01T00:47:43.929Z,22.22
2018-10-01T00:50:24.532Z,22.70
2018-10-01T00:53:05.212Z,24.10
2018-10-01T00:55:33.439Z,22.95
2018-10-01T00:58:13.700Z,21.97
2018-10-01T01:00:45.199Z,24.32
2018-10-01T01:03:25.474Z,22.90
2018-10-01T01:05:53.682Z,22.98
2018-10-01T01:08:34.121Z,23.83
2018-10-01T01:11:02.321Z,22.82
2018-10-01T01:13:30.557Z,23.65
2018-10-01T01:16:10.911Z,23.75
2018-10-01T01:18:40.033Z,23.43
2018-10-01T01:21:08.269Z,22.60
2018-10-01T01:23:48.722Z,22.25
2018-10-01T01:26:29.670Z,23.35
2018-10-01T01:29:10.397Z,22.65
2018-10-01T01:31:51.269Z,23.22
2018-10-01T01:34:32.040Z,23.20
2018-10-01T01:37:12.901Z,23.83
2018-10-01T01:39:41.174Z,24.50
2018-10-01T01:42:22.099Z,23.02
2018-10-01T01:45:02.726Z,22.60
2018-10-01T01:47:31.560Z,21.95
2018-10-01T01:50:01.013Z,23.77
2018-10-01T01:52:41.896Z,24.00
2018-10-01T01:55:10.241Z,22.13
2018-10-01T01:57:38.627Z,23.80
2018-10-01T02:00:06.986Z,23.63
2018-10-01T02:02:35.233Z,22.98
2018-10-01T02:05:16.350Z,21.10
2018-10-01T02:07:57.127Z,23.75
2018-10-01T02:10:26.162Z,22.00
2018-10-01T02:13:06.902Z,22.77
2018-10-01T02:15:47.994Z,22.20
2018-10-01T02:18:19.462Z,22.80
2018-10-01T02:20:47.786Z,22.33
2018-10-01T02:23:16.103Z,23.55
2018-10-01T02:25:57.294Z,23.80
2018-10-01T02:28:38.061Z,21.62
2018-10-01T02:31:18.769Z,22.27
2018-10-01T02:33:59.620Z,24.10
2018-10-01T02:36:40.606Z,26.17
2018-10-01T02:39:21.438Z,25.57
2018-10-01T02:42:02.255Z,19.73
2018-10-01T02:44:42.964Z,20.43
2018-10-01T02:47:23.810Z,16.77
2018-10-01T02:50:04.697Z,16.30
2018-10-01T02:53:51.385Z,15.73
2018-10-01T02:56:31.779Z,12.88
2018-10-01T02:59:12.683Z,12.40
2018-10-01T03:01:53.476Z,13.68
2018-10-01T03:04:34.251Z,12.28
2018-10-01T03:07:14.993Z,12.15
2018-10-01T03:09:43.279Z,13.20
2018-10-01T03:12:24.031Z,12.78
2018-10-01T03:14:52.480Z,12.53
2018-10-01T03:17:33.574Z,11.60
2018-10-01T03:20:01.824Z,13.10
2018-10-01T03:22:42.247Z,13.80
2018-10-01T03:25:22.901Z,12.07
2018-10-01T03:27:51.214Z,12.40
2018-10-01T03:30:19.465Z,12.55
2018-10-01T03:32:52.138Z,13.13
2018-10-01T03:35:20.349Z,15.45
2018-10-01T03:37:48.560Z,11.47
2018-10-01T03:40:29.749Z,12.73
2018-10-01T03:42:58.048Z,13.78
2018-10-01T03:45:26.319Z,10.75
2018-10-01T03:47:54.571Z,10.93
2018-10-01T03:50:35.373Z,13.90
2018-10-01T03:53:16.161Z,10.95
2018-10-01T03:55:56.995Z,11.23
2018-10-01T03:58:37.940Z,10.78
2018-10-01T04:01:18.755Z,11.78
2018-10-01T04:03:59.767Z,11.03
2018-10-01T04:06:28.082Z,11.22
2018-10-01T04:08:56.439Z,12.68
2018-10-01T04:11:24.622Z,11.40
2018-10-01T04:13:52.943Z,12.37
2018-10-01T04:16:33.305Z,11.65
2018-10-01T04:19:02.985Z,13.08
2018-10-01T04:21:43.490Z,12.18
2018-10-01T04:24:24.319Z,11.78
2018-10-01T04:26:52.603Z,12.47
2018-10-01T04:29:21.518Z,13.80
2018-10-01T04:31:49.965Z,14.17
2018-10-01T04:34:23.693Z,15.58
2018-10-01T04:36:52.029Z,12.70
2018-10-01T04:39:20.979Z,12.40
2018-10-01T04:41:50.912Z,13.15
2018-10-01T04:44:31.353Z,15.28
2018-10-01T04:47:01.031Z,12.47
2018-10-01T04:49:41.225Z,15.13
2018-10-01T04:52:22.016Z,12.43
2018-10-01T04:55:00.099Z,14.68
2018-10-01T04:57:28.323Z,11.20
2018-10-01T05:00:09.467Z,14.25
2018-10-01T05:02:50.007Z,11.33
2018-10-01T05:05:18.261Z,13.45
2018-10-01T05:07:58.780Z,10.30
2018-10-01T05:10:39.723Z,8.73
2018-10-01T05:13:08.072Z,14.20
2018-10-01T05:15:48.997Z,10.80
2018-10-01T05:18:17.321Z,12.75
2018-10-01T05:20:46.491Z,9.70
2018-10-01T05:23:14.796Z,8.97
2018-10-01T05:25:43.199Z,10.85
2018-10-01T05:28:11.516Z,11.10
2018-10-01T05:30:39.966Z,10.23
2018-10-01T05:33:20.988Z,12.82
2018-10-01T05:36:01.534Z,13.30
2018-10-01T05:38:29.823Z,12.80
2018-10-01T05:41:10.447Z,15.58
2018-10-01T05:43:40.227Z,10.55
2018-10-01T05:46:08.523Z,10.00
2018-10-01T05:48:36.856Z,13.45
2018-10-01T05:51:17.937Z,24.35
2018-10-01T05:53:58.792Z,10.15
2018-10-01T05:56:39.724Z,12.35
2018-10-01T05:59:08.108Z,12.55
2018-10-01T06:01:48.897Z,12.03
2018-10-01T06:04:29.856Z,9.70
2018-10-01T06:07:01.076Z,10.90
2018-10-01T06:09:29.383Z,11.68
2018-10-01T06:11:57.777Z,13.25
2018-10-01T06:14:38.359Z,11.68
2018-10-01T06:17:19.446Z,13.80
2018-10-01T06:20:00.415Z,11.38
2018-10-01T06:22:41.206Z,13.80
2018-10-01T06:25:22.202Z,17.07
2018-10-01T06:27:50.549Z,13.95
2018-10-01T06:30:30.895Z,13.35
2018-10-01T06:33:12.005Z,14.98
2018-10-01T06:35:52.933Z,8.95
2018-10-01T06:38:21.264Z,16.50
2018-10-01T06:40:49.622Z,15.17
2018-10-01T06:43:29.942Z,16.32
2018-10-01T06:46:10.981Z,11.48
2018-10-01T06:48:39.208Z,13.28
2018-10-01T06:51:20.041Z,18.67
2018-10-01T06:54:00.825Z,14.43
2018-10-01T06:56:42.109Z,14.80
2018-10-01T06:59:22.780Z,16.02
2018-10-01T07:02:03.682Z,27.70
2018-10-01T07:04:44.533Z,24.30
2018-10-01T07:07:12.996Z,18.00
2018-10-01T07:09:53.497Z,20.88
2018-10-01T07:12:34.329Z,16.97
2018-10-01T07:15:15.094Z,18.85
2018-10-01T07:17:56.183Z,16.97
2018-10-01T07:20:36.987Z,16.30
2018-10-01T07:23:18.147Z,17.82
2018-10-01T07:25:58.627Z,15.25
2018-10-01T07:28:39.504Z,12.73
2018-10-01T07:31:20.659Z,11.17
2018-10-01T07:33:48.977Z,12.33
2018-10-01T07:36:17.269Z,13.62
2018-10-01T07:38:45.527Z,13.20
2018-10-01T07:41:26.481Z,12.80
2018-10-01T07:44:07.522Z,21.60
2018-10-01T07:46:48.110Z,16.80
2018-10-01T07:49:28.764Z,14.05
2018-10-01T07:51:57.089Z,14.63
2018-10-01T07:54:37.603Z,15.93
2018-10-01T07:57:18.491Z,15.25
2018-10-01T07:59:47.193Z,17.50
2018-10-01T08:02:28.263Z,10.10
2018-10-01T08:05:08.947Z,10.75
2018-10-01T08:07:49.698Z,13.95
2018-10-01T08:10:30.557Z,15.03
2018-10-01T08:13:11.513Z,16.65
2018-10-01T08:15:52.572Z,11.53
2018-10-01T08:18:33.514Z,10.70
2018-10-01T08:21:14.479Z,13.72
2018-10-01T08:23:54.662Z,12.98
2018-10-01T08:26:22.965Z,14.07
2018-10-01T08:29:03.442Z,15.35
2018-10-01T08:31:32.043Z,11.35
2018-10-01T08:34:00.316Z,16.52
2018-10-01T08:36:28.553Z,19.50
2018-10-01T08:39:09.024Z,16.35
2018-10-01T08:41:50.093Z,18.20
2018-10-01T08:44:31.053Z,13.85
2018-10-01T08:46:59.299Z,17.17
2018-10-01T08:49:34.611Z,12.93
2018-10-01T08:52:20.561Z,13.83
2018-10-01T08:55:00.987Z,14.95
2018-10-01T08:57:29.269Z,17.62
2018-10-01T09:00:10.051Z,15.55
2018-10-01T09:02:38.498Z,16.52
2018-10-01T09:05:19.031Z,14.75
2018-10-01T09:07:59.887Z,12.80
2018-10-01T09:10:30.601Z,14.93
2018-10-01T09:13:00.037Z,14.53
2018-10-01T09:15:28.656Z,16.80
2018-10-01T09:17:59.389Z,14.90
2018-10-01T09:20:27.737Z,17.00
2018-10-01T09:22:59.329Z,19.05
2018-10-01T09:25:39.478Z,17.48
2018-10-01T09:28:11.602Z,14.10
2018-10-01T09:30:52.348Z,16.35
2018-10-01T09:33:22.811Z,16.40
2018-10-01T09:35:58.824Z,17.75
2018-10-01T09:38:32.725Z,16.52
2018-10-01T09:41:01.116Z,18.70
2018-10-01T09:43:33.761Z,19.70
2018-10-01T09:46:14.908Z,19.32
2018-10-01T09:48:55.544Z,18.32
2018-10-01T09:51:23.743Z,18.05
2018-10-01T09:54:04.499Z,15.00
2018-10-01T09:56:33.753Z,18.45
2018-10-01T09:59:14.258Z,18.45
2018-10-01T10:01:42.493Z,20.57
2018-10-01T10:04:23.249Z,19.30
2018-10-01T10:07:04.089Z,15.58
2018-10-01T10:09:44.781Z,15.13
2018-10-01T10:12:25.536Z,17.02
2018-10-01T10:15:06.119Z,17.10
2018-10-01T10:17:46.902Z,16.52
2018-10-01T10:20:15.144Z,13.10
2018-10-01T10:22:55.798Z,14.17
2018-10-01T10:25:36.470Z,14.75
2018-10-01T10:28:17.162Z,12.05
2018-10-01T10:30:57.989Z,12.50
2018-10-01T10:33:38.795Z,15.03
2018-10-01T10:36:19.675Z,12.43
2018-10-01T10:39:00.357Z,13.45
2018-10-01T10:41:41.681Z,14.20
2018-10-01T10:44:09.969Z,13.50
2018-10-01T10:46:50.673Z,15.03
2018-10-01T10:49:31.319Z,15.78
2018-10-01T10:52:12.261Z,13.30
2018-10-01T10:54:40.565Z,14.78
2018-10-01T10:57:20.937Z,17.70
2018-10-01T11:00:01.919Z,13.28
2018-10-01T11:02:43.118Z,14.05
2018-10-01T11:05:23.734Z,15.08
2018-10-01T11:07:52.008Z,11.12
2018-10-01T11:10:32.768Z,12.28
2018-10-01T11:13:13.449Z,11.88
2018-10-01T11:15:54.375Z,9.50
2018-10-01T11:18:22.569Z,8.67
2018-10-01T11:21:03.609Z,10.18
2018-10-01T11:23:31.776Z,12.37
2018-10-01T11:26:12.366Z,11.45
2018-10-01T11:28:40.624Z,10.93
2018-10-01T11:31:10.130Z,16.73
2018-10-01T11:33:44.518Z,12.93
2018-10-01T11:36:25.065Z,12.10
2018-10-01T11:39:06.092Z,14.87
2018-10-01T11:41:47.015Z,16.70
2018-10-01T11:44:15.210Z,14.15
2018-10-01T11:46:43.402Z,16.80
2018-10-01T11:49:12.399Z,14.83
2018-10-01T11:51:41.298Z,14.67
2018-10-01T11:54:21.996Z,13.98
2018-10-01T11:56:50.143Z,14.98
2018-10-01T11:59:30.814Z,14.87
2018-10-01T12:02:02.317Z,14.68
2018-10-01T12:04:30.630Z,12.63
2018-10-01T12:06:58.826Z,11.65
2018-10-01T12:09:27.127Z,10.05
2018-10-01T12:11:57.146Z,9.48
2018-10-01T12:14:37.342Z,7.83
2018-10-01T12:17:05.625Z,8.80
2018-10-01T12:19:46.082Z,7.33
2018-10-01T12:22:20.139Z,7.03
2018-10-01T12:25:00.989Z,6.28
2018-10-01T12:27:29.217Z,2.98
2018-10-01T12:30:09.925Z,5.78
2018-10-01T12:32:38.146Z,5.70
2018-10-01T12:35:19.111Z,6.17
2018-10-01T12:37:59.785Z,6.42
2018-10-01T12:40:28.980Z,7.90
2018-10-01T12:42:59.017Z,5.00
2018-10-01T12:45:27.285Z,7.70
2018-10-01T12:47:56.256Z,6.40
2018-10-01T12:50:37.220Z,4.78
2018-10-01T12:53:17.991Z,3.65
2018-10-01T12:55:58.861Z,5.25
2018-10-01T12:58:27.088Z,6.30
2018-10-01T13:01:07.932Z,7.97
2018-10-01T13:03:36.318Z,10.38
2018-10-01T13:06:16.554Z,5.97
2018-10-01T13:08:57.473Z,8.35
2018-10-01T13:11:25.896Z,6.20
2018-10-01T13:13:54.753Z,5.40
2018-10-01T13:16:35.675Z,8.50
2018-10-01T13:19:16.067Z,9.10
2018-10-01T13:21:44.585Z,6.58
2018-10-01T13:24:25.115Z,3.37
2018-10-01T13:27:08.303Z,6.70
2018-10-01T13:29:48.876Z,5.97
2018-10-01T13:32:29.903Z,4.30
2018-10-01T13:35:10.915Z,6.00
2018-10-01T13:37:39.424Z,6.40
2018-10-01T13:40:20.532Z,6.72
2018-10-01T13:42:50.227Z,3.47
2018-10-01T13:45:19.606Z,6.53
2018-10-01T13:47:48.673Z,7.05
2018-10-01T13:50:29.275Z,3.85
2018-10-01T13:53:10.246Z,4.28
2018-10-01T13:55:38.523Z,6.05
2018-10-01T13:58:06.943Z,6.40
2018-10-01T14:00:51.808Z,7.53
2018-10-01T14:03:32.601Z,7.50
2018-10-01T14:06:02.681Z,5.92
2018-10-01T14:08:46.050Z,5.70
2018-10-01T14:11:14.310Z,5.08
2018-10-01T14:13:55.092Z,7.28
2018-10-01T14:16:24.532Z,5.05
2018-10-01T14:19:04.968Z,3.55
2018-10-01T14:21:33.888Z,5.55
2018-10-01T14:24:14.192Z,6.10
2018-10-01T14:26:55.363Z,4.62
2018-10-01T14:29:23.617Z,4.37
2018-10-01T14:32:03.878Z,5.80
2018-10-01T14:34:44.582Z,7.10
2018-10-01T14:37:13.656Z,5.72
2018-10-01T14:39:41.841Z,4.55
2018-10-01T14:42:22.297Z,4.30
2018-10-01T14:45:03.007Z,5.20
2018-10-01T14:47:43.161Z,7.75
2018-10-01T14:50:11.457Z,3.08
2018-10-01T14:52:39.674Z,4.53
2018-10-01T14:55:08.000Z,4.50
2018-10-01T14:57:48.954Z,7.78
2018-10-01T15:00:30.003Z,6.65
2018-10-01T15:02:58.314Z,3.62
2018-10-01T15:05:39.423Z,4.40
2018-10-01T15:08:20.342Z,3.70
2018-10-01T15:11:01.426Z,7.65
2018-10-01T15:13:42.042Z,5.40
2018-10-01T15:16:11.472Z,4.45
2018-10-01T15:18:51.906Z,3.55
2018-10-01T15:21:33.086Z,5.12
2018-10-01T15:24:01.385Z,3.33
2018-10-01T15:26:33.902Z,3.72
2018-10-01T15:29:02.151Z,5.80
2018-10-01T15:31:43.165Z,2.70
2018-10-01T15:34:23.812Z,4.15
2018-10-01T15:37:04.877Z,3.40
2018-10-01T15:39:45.754Z,2.63
2018-10-01T15:42:14.130Z,3.50
2018-10-01T15:44:54.945Z,4.92
2018-10-01T15:47:35.866Z,2.98
2018-10-01T15:50:16.700Z,3.60
2018-10-01T15:52:57.725Z,4.83
2018-10-01T15:55:39.990Z,4.10
2018-10-01T15:58:08.397Z,3.62
2018-10-01T16:00:48.725Z,3.25
2018-10-01T16:03:29.721Z,3.55
2018-10-01T16:06:10.553Z,5.75
2018-10-01T16:08:51.270Z,4.80
2018-10-01T16:11:19.557Z,3.27
2018-10-01T16:13:48.548Z,5.28
2018-10-01T16:16:16.813Z,4.13
2018-10-01T16:18:45.696Z,4.15
2018-10-01T16:21:25.870Z,4.08
2018-10-01T16:23:59.329Z,3.67
2018-10-01T16:26:40.257Z,5.97
2018-10-01T16:29:08.607Z,3.72
2018-10-01T16:31:49.200Z,6.47
2018-10-01T16:34:17.486Z,4.65
2018-10-01T16:36:58.033Z,4.60
2018-10-01T16:39:26.376Z,5.30
2018-10-01T16:44:36.560Z,2.98
2018-10-01T16:47:04.841Z,4.40
2018-10-01T16:49:45.191Z,5.00
2018-10-01T16:52:26.120Z,6.60
2018-10-01T16:55:06.890Z,5.33
2018-10-01T16:57:47.846Z,3.80
2018-10-01T17:00:28.418Z,5.40
2018-10-01T17:03:09.622Z,3.00
2018-10-01T17:05:53.338Z,4.10
2018-10-01T17:08:33.984Z,4.40
2018-10-01T17:11:02.387Z,3.00
2018-10-01T17:13:42.813Z,5.00
2018-10-01T17:16:11.017Z,4.20
2018-10-01T17:18:51.337Z,3.45
2018-10-01T17:21:32.069Z,2.90
2018-10-01T17:24:06.391Z,2.83
2018-10-01T17:26:46.631Z,4.50
2018-10-01T17:29:27.679Z,3.30
2018-10-01T17:32:08.264Z,3.20
2018-10-01T17:34:49.080Z,4.70
2018-10-01T17:37:29.809Z,4.87
2018-10-01T17:40:10.692Z,4.20
2018-10-01T17:42:51.543Z,2.90
2018-10-01T17:45:19.928Z,4.92
2018-10-01T17:47:48.246Z,2.90
2018-10-01T17:50:16.518Z,4.62
2018-10-01T17:52:44.897Z,3.42
2018-10-01T17:55:13.219Z,3.50
2018-10-01T17:57:41.541Z,3.15
2018-10-01T18:00:22.748Z,2.87
2018-10-01T18:03:03.282Z,5.05
2018-10-01T18:05:31.902Z,2.30
2018-10-01T18:08:12.329Z,2.50
2018-10-01T18:10:41.712Z,2.77
2018-10-01T18:13:10.067Z,1.60
2018-10-01T18:15:44.965Z,2.98
2018-10-01T18:18:13.360Z,2.17
2018-10-01T18:20:54.436Z,3.37
2018-10-01T18:23:22.787Z,6.20
2018-10-01T18:25:51.063Z,3.58
2018-10-01T18:28:20.632Z,3.37
2018-10-01T18:31:01.726Z,3.08
2018-10-01T18:33:29.966Z,2.62
2018-10-01T18:36:11.131Z,2.85
2018-10-01T18:38:52.093Z,5.08
2018-10-01T18:41:23.501Z,1.70
2018-10-01T18:43:51.876Z,3.70
2018-10-01T18:46:20.498Z,2.12
2018-10-01T18:49:00.850Z,1.67
2018-10-01T18:51:41.627Z,1.60
2018-10-01T18:54:10.043Z,3.12
2018-10-01T18:56:38.270Z,2.20
2018-10-01T18:59:19.439Z,3.90
2018-10-01T19:02:00.721Z,2.12
2018-10-01T19:04:40.974Z,1.70
2018-10-01T19:07:22.530Z,2.20
2018-10-01T19:10:03.489Z,2.60
2018-10-01T19:15:26.298Z,3.27
2018-10-01T19:18:07.105Z,3.30
2018-10-01T19:20:35.354Z,1.82
2018-10-01T19:23:15.675Z,1.70
2018-10-01T19:25:56.272Z,2.42
2018-10-01T19:28:37.146Z,4.20
2018-10-01T19:31:17.928Z,3.50
2018-10-01T19:33:59.306Z,2.50
2018-10-01T19:36:40.426Z,2.00
2018-10-01T19:39:24.583Z,1.40
2018-10-01T19:42:05.110Z,3.10
2018-10-01T19:44:45.867Z,1.60
2018-10-01T19:47:26.778Z,2.00
2018-10-01T19:50:07.426Z,2.30
2018-10-01T19:52:35.654Z,2.87
2018-10-01T19:55:04.151Z,1.60
2018-10-01T19:57:32.520Z,3.58
2018-10-01T20:00:14.774Z,1.47
2018-10-01T20:02:44.437Z,3.00
2018-10-01T20:05:24.785Z,2.55
2018-10-01T20:08:05.476Z,2.00
2018-10-01T20:10:33.749Z,2.17
2018-10-01T20:13:03.572Z,2.55
2018-10-01T20:15:44.067Z,2.00
2018-10-01T20:18:17.867Z,3.17
2018-10-01T20:20:46.213Z,4.50
2018-10-01T20:23:26.754Z,3.40
2018-10-01T20:25:55.128Z,2.90
2018-10-01T20:28:35.960Z,6.25
2018-10-01T20:31:06.417Z,5.85
2018-10-01T20:33:46.669Z,2.30
2018-10-01T20:36:16.995Z,3.00
2018-10-01T20:38:46.730Z,2.45
2018-10-01T20:41:15.306Z,2.17
2018-10-01T20:43:45.188Z,3.70
2018-10-01T20:46:25.987Z,2.15
2018-10-01T20:48:54.205Z,3.70
2018-10-01T20:51:34.821Z,4.33
2018-10-01T20:54:15.756Z,2.87
2018-10-01T20:56:57.779Z,3.80
2018-10-01T20:59:38.190Z,3.10
2018-10-01T21:02:16.243Z,2.40
2018-10-01T21:04:44.574Z,3.35
2018-10-01T21:07:24.762Z,5.90
2018-10-01T21:10:05.495Z,4.90
2018-10-01T21:12:46.501Z,6.30
2018-10-01T21:15:27.205Z,3.00
2018-10-01T21:18:08.077Z,3.72
2018-10-01T21:20:48.837Z,5.58
2018-10-01T21:23:29.634Z,3.27
2018-10-01T21:26:10.358Z,4.75
2018-10-01T21:28:51.030Z,4.22
2018-10-01T21:31:31.818Z,3.55
2018-10-01T21:34:12.661Z,5.22
2018-10-01T21:36:53.418Z,5.10
2018-10-01T21:39:40.746Z,4.22
2018-10-01T21:42:21.422Z,4.50
2018-10-01T21:45:02.728Z,6.40
2018-10-01T21:47:43.137Z,6.50
2018-10-01T21:50:23.740Z,4.25
2018-10-01T21:53:04.634Z,3.83
2018-10-01T21:55:45.372Z,3.35
2018-10-01T21:58:26.172Z,3.70
2018-10-01T22:01:12.501Z,6.03
2018-10-01T22:03:53.614Z,5.25
2018-10-01T22:06:34.571Z,3.12
2018-10-01T22:09:16.998Z,6.70
2018-10-01T22:11:58.093Z,3.08
2018-10-01T22:14:27.082Z,5.58
2018-10-01T22:17:08.389Z,5.17
2018-10-01T22:19:49.076Z,3.75
2018-10-01T22:22:30.047Z,3.30
2018-10-01T22:25:11.091Z,4.00
2018-10-01T22:27:52.031Z,2.67
2018-10-01T22:30:32.979Z,3.75
2018-10-01T22:33:13.775Z,3.85
2018-10-01T22:35:54.667Z,4.00
2018-10-01T22:38:35.672Z,4.60
2018-10-01T22:41:16.540Z,6.30
2018-10-01T22:43:45.783Z,6.30
2018-10-01T22:46:26.485Z,3.65
2018-10-01T22:48:54.738Z,3.40
2018-10-01T22:51:23.098Z,4.53
2018-10-01T22:53:53.093Z,5.53
2018-10-01T22:56:33.851Z,5.03
2018-10-01T22:59:14.699Z,2.92
2018-10-01T23:01:55.438Z,4.33
2018-10-01T23:04:23.667Z,2.58
2018-10-01T23:07:04.552Z,3.22
2018-10-01T23:09:45.368Z,7.67
2018-10-01T23:12:13.594Z,3.83
2018-10-01T23:14:41.820Z,5.05
2018-10-01T23:17:22.177Z,4.30
2018-10-01T23:20:03.219Z,4.60
2018-10-01T23:22:44.242Z,3.03
2018-10-01T23:25:25.033Z,2.70
2018-10-01T23:28:06.071Z,3.57
2018-10-01T23:30:46.842Z,3.90
2018-10-01T23:33:27.677Z,3.80
2018-10-01T23:36:08.652Z,4.73
2018-10-01T23:38:49.533Z,3.40
2018-10-01T23:41:30.358Z,2.12
2018-10-01T23:44:11.148Z,4.95
2018-10-01T23:46:52.111Z,3.30
2018-10-01T23:49:32.945Z,4.22
2018-10-01T23:52:13.714Z,3.80
2018-10-01T23:54:54.587Z,6.90
2018-10-01T23:57:35.670Z,7.75
